createdAt,value
2022-12-18T00:00:10.818Z,31.57
2022-12-18T00:02:39.359Z,27.57
2022-12-18T00:05:10.713Z,29.53
2022-12-18T00:07:39.489Z,31.87
2022-12-18T00:10:09.097Z,30.20
2022-12-18T00:12:37.504Z,28.90
2022-12-18T00:15:06.887Z,35.40
2022-12-18T00:17:35.273Z,31.73
2022-12-18T00:20:03.740Z,36.60
2022-12-18T00:22:33.506Z,31.77
2022-12-18T00:25:01.872Z,29.30
2022-12-18T00:27:30.307Z,30.50
2022-12-18T00:29:58.666Z,36.17
2022-12-18T00:32:27.087Z,30.33
2022-12-18T00:34:55.451Z,34.37
2022-12-18T00:37:23.897Z,30.70
2022-12-18T00:39:53.784Z,28.63
2022-12-18T00:42:39.728Z,31.37
2022-12-18T00:45:13.039Z,33.83
2022-12-18T00:47:42.398Z,28.23
2022-12-18T00:50:11.835Z,27.97
2022-12-18T00:52:43.978Z,26.50
2022-12-18T00:55:14.662Z,29.03
2022-12-18T00:57:43.403Z,31.60
2022-12-18T01:00:14.610Z,33.40
2022-12-18T01:02:44.102Z,33.80
2022-12-18T01:05:14.422Z,29.37
2022-12-18T01:07:42.828Z,31.17
2022-12-18T01:10:15.037Z,31.27
2022-12-18T01:12:44.173Z,29.93
2022-12-18T01:15:14.936Z,29.30
2022-12-18T01:17:43.521Z,29.00
2022-12-18T01:20:15.346Z,38.20
2022-12-18T01:22:43.876Z,26.23
2022-12-18T01:25:13.740Z,27.77
2022-12-18T01:27:42.240Z,29.23
2022-12-18T01:30:11.661Z,32.00
2022-12-18T01:32:40.345Z,28.33
2022-12-18T01:35:09.758Z,24.50
2022-12-18T01:37:38.222Z,29.20
2022-12-18T01:40:07.758Z,29.17
2022-12-18T01:42:37.599Z,29.67
2022-12-18T01:45:09.703Z,27.17
2022-12-18T01:47:41.700Z,31.07
2022-12-18T01:50:14.166Z,27.67
2022-12-18T01:52:45.222Z,29.23
2022-12-18T01:55:15.416Z,28.83
2022-12-18T01:57:46.256Z,27.87
2022-12-18T02:00:17.218Z,33.10
2022-12-18T02:02:48.273Z,31.33
2022-12-18T02:05:20.536Z,33.07
2022-12-18T02:08:03.139Z,26.23
2022-12-18T02:10:48.226Z,27.93
2022-12-18T02:13:23.323Z,27.90
2022-12-18T02:16:01.996Z,33.87
2022-12-18T02:18:34.926Z,26.27
2022-12-18T02:21:12.029Z,33.50
2022-12-18T02:23:52.577Z,36.03
2022-12-18T02:26:29.083Z,31.03
2022-12-18T02:29:04.291Z,27.37
2022-12-18T02:31:39.032Z,29.40
2022-12-18T02:34:10.921Z,34.23
2022-12-18T02:36:42.951Z,32.43
2022-12-18T02:39:13.913Z,28.80
2022-12-18T02:41:44.373Z,28.00
2022-12-18T02:44:15.174Z,24.23
2022-12-18T02:46:46.252Z,27.20
2022-12-18T02:49:27.120Z,30.57
2022-12-18T02:51:58.927Z,26.97
2022-12-18T02:54:41.041Z,23.77
2022-12-18T02:57:18.983Z,33.90
2022-12-18T02:59:55.751Z,28.43
2022-12-18T03:05:07.790Z,26.73
2022-12-18T03:07:40.448Z,30.10
2022-12-18T03:10:14.751Z,28.60
2022-12-18T03:12:49.188Z,29.70
2022-12-18T03:15:22.000Z,29.67
2022-12-18T03:17:55.164Z,27.43
2022-12-18T03:20:27.372Z,26.87
2022-12-18T03:23:02.532Z,28.57
2022-12-18T03:25:33.165Z,24.27
2022-12-18T03:28:05.547Z,29.80
2022-12-18T03:30:39.888Z,26.23
2022-12-18T03:33:12.181Z,28.90
2022-12-18T03:35:44.540Z,29.03
2022-12-18T03:38:13.755Z,24.87
2022-12-18T03:40:53.451Z,25.97
2022-12-18T03:43:32.083Z,29.50
2022-12-18T03:46:07.790Z,29.10
2022-12-18T03:48:42.856Z,31.30
2022-12-18T03:51:17.461Z,31.07
2022-12-18T03:53:54.908Z,33.23
2022-12-18T03:56:25.076Z,26.43
2022-12-18T03:58:57.348Z,28.33
2022-12-18T04:01:31.455Z,29.63
2022-12-18T04:04:01.882Z,25.83
2022-12-18T04:06:31.869Z,28.60
2022-12-18T04:09:00.827Z,27.90
2022-12-18T04:11:29.556Z,29.83
2022-12-18T04:14:02.741Z,25.77
2022-12-18T04:16:34.368Z,32.63
2022-12-18T04:19:02.853Z,26.27
2022-12-18T04:21:31.582Z,24.10
2022-12-18T04:23:59.970Z,26.50
2022-12-18T04:26:28.352Z,28.30
2022-12-18T04:28:56.792Z,30.83
2022-12-18T04:31:26.725Z,29.50
2022-12-18T04:33:55.417Z,27.27
2022-12-18T04:36:23.867Z,28.80
2022-12-18T04:38:52.306Z,25.70
2022-12-18T04:41:20.753Z,28.20
2022-12-18T04:43:49.173Z,33.43
2022-12-18T04:46:17.648Z,29.67
2022-12-18T04:48:49.168Z,25.17
2022-12-18T04:51:19.881Z,30.97
2022-12-18T04:53:53.045Z,36.57
2022-12-18T04:56:21.843Z,29.97
2022-12-18T04:58:50.275Z,30.10
2022-12-18T05:01:20.263Z,35.07
2022-12-18T05:03:50.275Z,28.73
2022-12-18T05:06:18.751Z,27.13
2022-12-18T05:08:47.216Z,33.60
2022-12-18T05:11:17.428Z,33.40
2022-12-18T05:13:46.646Z,32.43
2022-12-18T05:16:15.984Z,28.10
2022-12-18T05:18:44.526Z,27.97
2022-12-18T05:21:14.374Z,32.10
2022-12-18T05:23:43.015Z,27.53
2022-12-18T05:26:16.472Z,29.67
2022-12-18T05:28:45.214Z,28.47
2022-12-18T05:31:14.162Z,37.87
2022-12-18T05:33:43.034Z,30.13
2022-12-18T05:36:13.860Z,31.37
2022-12-18T05:38:42.478Z,32.33
2022-12-18T05:41:11.861Z,30.27
2022-12-18T05:43:41.940Z,27.57
2022-12-18T05:46:14.662Z,32.23
2022-12-18T05:48:43.236Z,30.93
2022-12-18T05:51:15.625Z,28.53
2022-12-18T05:53:44.914Z,27.57
2022-12-18T05:56:15.827Z,27.67
2022-12-18T05:58:44.646Z,33.97
2022-12-18T06:01:18.015Z,30.87
2022-12-18T06:03:47.071Z,31.57
2022-12-18T06:06:18.901Z,32.33
2022-12-18T06:08:47.839Z,30.33
2022-12-18T06:11:19.692Z,33.23
2022-12-18T06:13:48.809Z,35.43
2022-12-18T06:16:17.306Z,38.50
2022-12-18T06:18:45.779Z,33.50
2022-12-18T06:21:14.588Z,35.77
2022-12-18T06:23:44.825Z,37.33
2022-12-18T06:26:15.140Z,34.80
2022-12-18T06:28:43.962Z,33.17
2022-12-18T06:31:12.843Z,34.50
2022-12-18T06:33:42.028Z,41.03
2022-12-18T06:36:13.121Z,43.30
2022-12-18T06:38:44.902Z,33.07
2022-12-18T06:41:15.630Z,40.33
2022-12-18T06:43:44.360Z,39.30
2022-12-18T06:46:13.316Z,47.30
2022-12-18T06:48:41.983Z,39.33
2022-12-18T06:51:10.398Z,47.43
2022-12-18T06:53:39.150Z,42.40
2022-12-18T06:56:11.049Z,40.90
2022-12-18T06:58:40.057Z,48.97
2022-12-18T07:01:10.990Z,40.67
2022-12-18T07:03:41.134Z,38.03
2022-12-18T07:06:17.282Z,39.63
2022-12-18T07:08:45.883Z,45.77
2022-12-18T07:11:15.882Z,54.00
2022-12-18T07:13:44.748Z,37.77
2022-12-18T07:16:22.335Z,45.97
2022-12-18T07:18:52.905Z,47.13
2022-12-18T07:21:22.270Z,54.33
2022-12-18T07:23:50.652Z,44.10
2022-12-18T07:26:22.065Z,43.03
2022-12-18T07:28:50.871Z,40.67
2022-12-18T07:31:22.668Z,38.33
2022-12-18T07:33:51.487Z,44.43
2022-12-18T07:36:20.721Z,39.10
2022-12-18T07:38:50.411Z,41.90
2022-12-18T07:41:20.248Z,89.27
2022-12-18T07:43:49.355Z,60.43
2022-12-18T07:46:18.864Z,34.63
2022-12-18T07:48:49.786Z,41.67
2022-12-18T07:51:19.283Z,41.70
2022-12-18T07:53:49.325Z,49.00
2022-12-18T07:56:31.191Z,53.53
2022-12-18T07:59:00.684Z,51.10
2022-12-18T08:01:29.560Z,40.17
2022-12-18T08:03:58.271Z,38.40
2022-12-18T08:06:26.941Z,42.00
2022-12-18T08:08:55.963Z,37.10
2022-12-18T08:11:27.825Z,32.47
2022-12-18T08:13:56.756Z,41.00
2022-12-18T08:16:25.218Z,42.50
2022-12-18T08:18:55.139Z,38.40
2022-12-18T08:21:25.537Z,38.17
2022-12-18T08:23:55.179Z,33.03
2022-12-18T08:26:25.771Z,33.77
2022-12-18T08:28:55.870Z,33.77
2022-12-18T08:31:24.836Z,36.07
2022-12-18T08:33:54.530Z,32.87
2022-12-18T08:36:24.461Z,29.90
2022-12-18T08:38:54.180Z,32.53
2022-12-18T08:41:23.207Z,32.17
2022-12-18T08:44:10.610Z,32.43
2022-12-18T08:46:41.356Z,52.20
2022-12-18T08:49:10.938Z,33.57
2022-12-18T08:51:39.989Z,34.73
2022-12-18T08:54:09.440Z,34.30
2022-12-18T08:56:37.917Z,47.67
2022-12-18T08:59:07.815Z,38.87
2022-12-18T09:01:36.600Z,37.53
2022-12-18T09:04:05.273Z,34.93
2022-12-18T09:06:35.957Z,37.27
2022-12-18T09:09:06.235Z,54.03
2022-12-18T09:11:35.563Z,32.63
2022-12-18T09:14:04.448Z,34.47
2022-12-18T09:16:36.282Z,40.07
2022-12-18T09:19:06.786Z,36.57
2022-12-18T09:21:37.171Z,29.67
2022-12-18T09:24:08.831Z,38.83
2022-12-18T09:26:37.611Z,29.97
2022-12-18T09:29:06.110Z,34.17
2022-12-18T09:31:36.576Z,29.83
2022-12-18T09:34:09.743Z,30.60
2022-12-18T09:36:38.207Z,32.83
2022-12-18T09:39:08.740Z,29.43
2022-12-18T09:41:51.733Z,30.70
2022-12-18T09:44:28.122Z,29.60
2022-12-18T09:47:07.357Z,27.43
2022-12-18T09:49:41.963Z,33.90
2022-12-18T09:52:16.256Z,30.93
2022-12-18T09:54:48.816Z,38.17
2022-12-18T09:57:20.137Z,37.37
2022-12-18T09:59:55.565Z,35.17
2022-12-18T10:02:27.539Z,35.47
2022-12-18T10:05:09.160Z,29.87
2022-12-18T10:07:50.290Z,31.77
2022-12-18T10:10:34.382Z,48.63
2022-12-18T10:13:17.930Z,32.93
2022-12-18T10:16:01.960Z,55.83
2022-12-18T10:18:47.581Z,42.33
2022-12-18T10:21:20.902Z,63.67
2022-12-18T10:23:58.338Z,42.73
2022-12-18T10:26:27.112Z,40.67
2022-12-18T10:29:03.680Z,43.53
2022-12-18T10:31:34.157Z,50.43
2022-12-18T10:34:04.246Z,33.47
2022-12-18T10:36:32.757Z,35.37
2022-12-18T10:39:17.599Z,31.00
2022-12-18T10:41:46.096Z,36.23
2022-12-18T10:44:22.040Z,45.63
2022-12-18T10:46:52.307Z,50.73
2022-12-18T10:49:28.524Z,33.73
2022-12-18T10:52:09.969Z,33.37
2022-12-18T10:54:38.835Z,41.27
2022-12-18T10:57:18.176Z,36.07
2022-12-18T10:59:54.371Z,38.93
2022-12-18T11:02:35.718Z,42.70
2022-12-18T11:05:27.299Z,40.37
2022-12-18T11:07:57.438Z,37.57
2022-12-18T11:10:30.801Z,42.37
2022-12-18T11:13:12.484Z,44.03
2022-12-18T11:15:44.048Z,40.57
2022-12-18T11:18:21.241Z,50.67
2022-12-18T11:20:58.697Z,49.33
2022-12-18T11:23:28.697Z,47.03
2022-12-18T11:25:59.995Z,53.77
2022-12-18T11:28:36.801Z,47.17
2022-12-18T11:31:19.434Z,60.10
2022-12-18T11:34:26.733Z,47.77
2022-12-18T11:36:47.967Z,55.57
2022-12-18T11:39:22.676Z,50.97
2022-12-18T11:42:14.295Z,39.93
2022-12-18T11:44:50.681Z,50.73
2022-12-18T11:47:28.006Z,50.77
2022-12-18T11:49:58.635Z,46.73
2022-12-18T11:52:31.065Z,46.93
2022-12-18T11:55:03.902Z,54.80
2022-12-18T11:57:42.173Z,52.27
2022-12-18T12:00:18.366Z,56.13
2022-12-18T12:03:24.720Z,43.73
2022-12-18T12:06:09.176Z,45.70
2022-12-18T12:08:52.456Z,41.30
2022-12-18T12:11:29.457Z,39.63
2022-12-18T12:14:12.263Z,48.40
2022-12-18T12:16:49.971Z,43.30
2022-12-18T12:19:33.262Z,75.07
2022-12-18T12:22:11.984Z,60.20
2022-12-18T12:24:55.108Z,58.90
2022-12-18T12:27:31.312Z,36.83
2022-12-18T12:30:08.975Z,43.77
2022-12-18T12:32:53.148Z,47.67
2022-12-18T12:35:32.270Z,50.00
2022-12-18T12:38:09.711Z,44.93
2022-12-18T12:40:58.763Z,46.70
2022-12-18T12:43:37.518Z,48.23
2022-12-18T12:46:08.527Z,40.83
2022-12-18T12:48:46.600Z,49.13
2022-12-18T12:51:19.619Z,47.30
2022-12-18T12:53:50.332Z,52.83
2022-12-18T12:56:22.419Z,48.67
2022-12-18T12:59:02.428Z,55.00
2022-12-18T13:01:38.417Z,51.63
2022-12-18T13:04:22.922Z,54.27
2022-12-18T13:07:00.752Z,40.63
2022-12-18T13:09:34.130Z,48.60
2022-12-18T13:12:30.548Z,51.40
2022-12-18T13:15:22.271Z,41.77
2022-12-18T13:17:50.938Z,47.60
2022-12-18T13:20:20.052Z,44.83
2022-12-18T13:22:50.929Z,39.87
2022-12-18T13:25:38.142Z,41.67
2022-12-18T13:28:15.114Z,38.63
2022-12-18T13:30:50.568Z,43.33
2022-12-18T13:36:36.515Z,44.77
2022-12-18T13:39:34.242Z,33.77
2022-12-18T13:42:56.794Z,59.37
2022-12-18T13:45:43.134Z,51.83
2022-12-18T13:48:24.497Z,47.50
2022-12-18T13:51:01.470Z,44.03
2022-12-18T13:53:35.658Z,47.23
2022-12-18T13:56:05.072Z,43.67
2022-12-18T13:58:34.215Z,50.43
2022-12-18T14:01:05.894Z,47.47
2022-12-18T14:03:34.446Z,46.60
2022-12-18T14:06:07.143Z,51.40
2022-12-18T14:08:40.527Z,48.77
2022-12-18T14:11:12.804Z,53.40
2022-12-18T14:13:44.428Z,60.27
2022-12-18T14:16:19.070Z,66.47
2022-12-18T14:18:50.471Z,64.37
2022-12-18T14:21:23.756Z,62.20
2022-12-18T14:24:05.979Z,58.80
2022-12-18T14:26:34.907Z,63.10
2022-12-18T14:29:20.560Z,58.73
2022-12-18T14:32:11.816Z,63.07
2022-12-18T14:34:43.748Z,56.80
2022-12-18T14:37:13.873Z,71.97
2022-12-18T14:39:42.896Z,58.20
2022-12-18T14:42:14.473Z,65.37
2022-12-18T14:45:05.321Z,66.33
2022-12-18T14:47:33.237Z,58.50
2022-12-18T14:50:02.577Z,65.07
2022-12-18T14:52:34.549Z,59.27
2022-12-18T14:55:02.960Z,62.07
2022-12-18T14:57:39.048Z,57.40
2022-12-18T15:00:09.363Z,54.20
2022-12-18T15:02:39.516Z,69.53
2022-12-18T15:05:20.456Z,67.50
2022-12-18T15:07:50.850Z,68.93
2022-12-18T15:10:21.333Z,57.47
2022-12-18T15:12:51.674Z,71.60
2022-12-18T15:15:53.830Z,69.10
2022-12-18T15:18:31.761Z,64.50
2022-12-18T15:21:02.319Z,63.00
2022-12-18T15:23:40.603Z,58.00
2022-12-18T15:26:11.657Z,54.63
2022-12-18T15:28:45.714Z,55.57
2022-12-18T15:31:31.328Z,56.63
2022-12-18T15:34:13.699Z,42.13
2022-12-18T15:36:42.368Z,53.30
2022-12-18T15:39:14.473Z,62.87
2022-12-18T15:42:03.513Z,53.87
2022-12-18T15:44:30.883Z,58.37
2022-12-18T15:46:59.419Z,55.60
2022-12-18T15:49:29.202Z,49.87
2022-12-18T15:52:00.716Z,62.13
2022-12-18T15:54:46.153Z,59.23
2022-12-18T15:57:27.734Z,52.87
2022-12-18T15:59:59.491Z,55.40
2022-12-18T16:02:29.323Z,55.63
2022-12-18T16:04:59.911Z,68.77
2022-12-18T16:07:30.523Z,114.87
2022-12-18T16:10:00.839Z,66.97
2022-12-18T16:12:31.170Z,39.20
2022-12-18T16:14:59.512Z,55.43
2022-12-18T16:17:27.911Z,57.93
2022-12-18T16:19:56.291Z,48.63
2022-12-18T16:22:29.062Z,58.07
2022-12-18T16:24:58.494Z,55.67
2022-12-18T16:27:27.895Z,62.00
2022-12-18T16:29:56.566Z,55.33
2022-12-18T16:32:25.196Z,48.00
2022-12-18T16:34:53.851Z,64.53
2022-12-18T16:37:22.234Z,63.90
2022-12-18T16:39:52.211Z,61.40
2022-12-18T16:42:21.785Z,67.07
2022-12-18T16:44:51.804Z,61.33
2022-12-18T16:47:21.023Z,59.33
2022-12-18T16:49:51.947Z,61.57
2022-12-18T16:52:20.696Z,65.83
2022-12-18T16:54:49.211Z,65.63
2022-12-18T16:57:21.118Z,77.37
2022-12-18T16:59:52.497Z,71.63
2022-12-18T17:02:23.625Z,70.67
2022-12-18T17:04:55.441Z,79.93
2022-12-18T17:07:25.127Z,79.83
2022-12-18T17:09:54.473Z,71.00
2022-12-18T17:12:24.665Z,71.10
2022-12-18T17:14:53.115Z,68.43
2022-12-18T17:17:23.388Z,86.90
2022-12-18T17:19:52.784Z,88.10
2022-12-18T17:22:21.260Z,98.40
2022-12-18T17:24:49.640Z,105.30
2022-12-18T17:27:18.149Z,82.83
2022-12-18T17:29:48.982Z,91.40
2022-12-18T17:32:18.119Z,74.37
2022-12-18T17:34:46.888Z,77.10
2022-12-18T17:37:15.676Z,79.03
2022-12-18T17:39:44.119Z,88.17
2022-12-18T17:42:15.436Z,82.17
2022-12-18T17:44:44.756Z,90.90
2022-12-18T17:47:14.820Z,87.93
2022-12-18T17:49:43.159Z,85.37
2022-12-18T17:52:12.112Z,86.83
2022-12-18T17:54:42.412Z,85.37
2022-12-18T17:57:11.073Z,134.93
2022-12-18T17:59:39.507Z,93.97
2022-12-18T18:02:08.540Z,91.60
2022-12-18T18:04:41.055Z,100.13
2022-12-18T18:07:09.836Z,105.60
2022-12-18T18:09:38.231Z,97.23
2022-12-18T18:12:24.649Z,102.10
2022-12-18T18:14:53.167Z,79.20
2022-12-18T18:17:21.880Z,94.83
2022-12-18T18:19:56.143Z,100.77
2022-12-18T18:22:24.623Z,96.37
2022-12-18T18:24:53.778Z,98.30
2022-12-18T18:27:22.204Z,94.90
2022-12-18T18:29:50.796Z,95.03
2022-12-18T18:32:19.476Z,90.23
2022-12-18T18:34:48.064Z,83.43
2022-12-18T18:37:17.929Z,82.73
2022-12-18T18:39:49.331Z,91.03
2022-12-18T18:42:18.409Z,115.43
2022-12-18T18:44:49.049Z,112.93
2022-12-18T18:47:17.914Z,121.60
2022-12-18T18:49:46.449Z,100.97
2022-12-18T18:52:15.241Z,95.53
2022-12-18T18:55:10.776Z,86.03
2022-12-18T18:57:34.682Z,84.57
2022-12-18T19:00:03.216Z,93.83
2022-12-18T19:02:31.850Z,101.90
2022-12-18T19:05:00.448Z,253.63
2022-12-18T19:07:30.414Z,124.80
2022-12-18T19:10:04.680Z,105.90
2022-12-18T19:12:52.058Z,112.73
2022-12-18T19:15:21.185Z,100.10
2022-12-18T19:17:51.769Z,100.20
2022-12-18T19:20:20.826Z,114.97
2022-12-18T19:22:55.658Z,110.97
2022-12-18T19:25:38.443Z,89.10
2022-12-18T19:28:15.344Z,98.90
2022-12-18T19:30:52.494Z,102.63
2022-12-18T19:33:43.211Z,103.70
2022-12-18T19:36:15.399Z,116.50
2022-12-18T19:38:45.470Z,110.73
2022-12-18T19:41:16.225Z,112.47
2022-12-18T19:43:45.606Z,114.40
2022-12-18T19:46:16.489Z,91.47
2022-12-18T19:48:45.618Z,92.53
2022-12-18T19:51:17.012Z,106.13
2022-12-18T19:53:45.837Z,86.50
2022-12-18T19:56:17.615Z,90.27
2022-12-18T19:58:46.833Z,76.60
2022-12-18T20:01:16.776Z,83.07
2022-12-18T20:03:51.734Z,86.37
2022-12-18T20:06:26.825Z,83.17
2022-12-18T20:08:59.968Z,79.57
2022-12-18T20:11:31.136Z,81.00
2022-12-18T20:14:00.434Z,64.83
2022-12-18T20:16:29.341Z,78.73
2022-12-18T20:18:59.229Z,78.93
2022-12-18T20:21:27.587Z,75.20
2022-12-18T20:23:56.447Z,83.40
2022-12-18T20:26:25.645Z,85.50
2022-12-18T20:28:56.052Z,77.57
2022-12-18T20:31:25.463Z,84.80
2022-12-18T20:33:55.648Z,84.67
2022-12-18T20:36:28.173Z,88.13
2022-12-18T20:38:59.224Z,82.97
2022-12-18T20:41:37.263Z,85.27
2022-12-18T20:44:21.498Z,79.27
2022-12-18T20:46:54.221Z,94.43
2022-12-18T20:49:23.430Z,93.37
2022-12-18T20:51:53.659Z,86.77
2022-12-18T20:54:22.397Z,88.37
2022-12-18T20:56:51.107Z,94.67
2022-12-18T20:59:21.109Z,90.53
2022-12-18T21:01:50.245Z,95.67
2022-12-18T21:04:19.379Z,101.53
2022-12-18T21:06:52.891Z,99.27
2022-12-18T21:09:24.161Z,97.43
2022-12-18T21:12:11.115Z,105.27
2022-12-18T21:14:46.532Z,104.37
2022-12-18T21:17:17.846Z,92.57
2022-12-18T21:19:46.583Z,90.90
2022-12-18T21:22:17.579Z,104.47
2022-12-18T21:24:46.219Z,91.73
2022-12-18T21:27:17.692Z,98.77
2022-12-18T21:29:48.573Z,91.53
2022-12-18T21:32:19.679Z,86.83
2022-12-18T21:34:49.582Z,93.93
2022-12-18T21:37:18.598Z,105.27
2022-12-18T21:39:48.716Z,95.07
2022-12-18T21:42:34.722Z,91.23
2022-12-18T21:45:05.256Z,100.40
2022-12-18T21:47:34.658Z,92.77
2022-12-18T21:50:03.528Z,93.43
2022-12-18T21:52:32.974Z,94.60
2022-12-18T21:55:08.528Z,100.63
2022-12-18T21:57:38.227Z,108.07
2022-12-18T22:00:18.501Z,102.10
2022-12-18T22:02:48.764Z,105.23
2022-12-18T22:05:36.792Z,90.83
2022-12-18T22:08:07.084Z,91.80
2022-12-18T22:10:36.242Z,87.93
2022-12-18T22:13:04.949Z,85.57
2022-12-18T22:15:35.656Z,87.87
2022-12-18T22:18:04.226Z,99.83
2022-12-18T22:20:32.866Z,90.50
2022-12-18T22:23:02.619Z,91.50
2022-12-18T22:25:39.894Z,86.07
2022-12-18T22:28:25.219Z,90.83
2022-12-18T22:30:59.123Z,99.37
2022-12-18T22:33:29.300Z,84.07
2022-12-18T22:35:58.610Z,93.70
2022-12-18T22:38:27.473Z,91.47
2022-12-18T22:40:56.656Z,98.23
2022-12-18T22:43:25.060Z,95.93
2022-12-18T22:45:55.599Z,95.27
2022-12-18T22:48:24.438Z,93.47
2022-12-18T22:50:58.508Z,84.70
2022-12-18T22:53:27.967Z,98.97
2022-12-18T22:56:02.958Z,93.13
2022-12-18T22:58:32.016Z,98.87
2022-12-18T23:01:01.809Z,90.37
2022-12-18T23:03:30.659Z,96.67
2022-12-18T23:06:05.901Z,90.80
2022-12-18T23:08:35.121Z,87.03
2022-12-18T23:11:03.852Z,100.27
2022-12-18T23:13:33.767Z,100.73
2022-12-18T23:16:06.255Z,82.50
2022-12-18T23:18:35.064Z,82.97
2022-12-18T23:21:07.620Z,90.87
2022-12-18T23:23:38.259Z,94.90
2022-12-18T23:26:09.760Z,85.07
2022-12-18T23:28:39.744Z,101.23
2022-12-18T23:31:13.875Z,105.83
2022-12-18T23:33:43.918Z,88.70
2022-12-18T23:36:13.966Z,91.57
2022-12-18T23:38:42.702Z,110.23
2022-12-18T23:41:12.610Z,104.00
2022-12-18T23:43:41.288Z,106.67
2022-12-18T23:46:14.604Z,110.13
2022-12-18T23:48:46.263Z,102.90
2022-12-18T23:51:17.817Z,116.40
2022-12-18T23:53:46.413Z,102.43
2022-12-18T23:56:15.271Z,109.83
2022-12-18T23:58:44.543Z,106.93
